Time;durP1;ratioP1;P1;durP2;ratioP2;P2;SDS_P1;SDS_P2;PMS_P1;PMS_P2;Temp;Humidity;BMP_temperature;BMP_pressure;BME280_temperature;BME280_humidity;BME280_pressure;Samples;Min_cycle;Max_cycle;Signal;HPM_P1;HPM_P2
2022/10/01 00:01:12;;;;;;;5.27;4.77;;;10.40;93.40;;;;;;5097755;28;20447;-44
2022/10/01 00:03:37;;;;;;;5.13;4.63;;;10.40;93.60;;;;;;5098230;28;20411;-43
2022/10/01 00:06:12;;;;;;;5.03;4.63;;;10.40;93.70;;;;;;5097449;28;20898;-49
2022/10/01 00:08:39;;;;;;;5.17;4.67;;;10.40;93.70;;;;;;5097858;28;20168;-44
2022/10/01 00:11:13;;;;;;;5.00;4.50;;;10.40;93.80;;;;;;5096690;28;20825;-47
2022/10/01 00:13:40;;;;;;;4.87;4.47;;;10.40;93.80;;;;;;5099050;28;20413;-45
2022/10/01 00:16:08;;;;;;;5.43;4.93;;;10.40;93.90;;;;;;5098741;28;20399;-46
2022/10/01 00:18:37;;;;;;;6.00;5.27;;;10.40;94.00;;;;;;5098183;28;20425;-44
2022/10/01 00:21:15;;;;;;;4.83;4.33;;;10.40;94.10;;;;;;5097802;28;20411;-46
2022/10/01 00:23:41;;;;;;;6.00;5.20;;;10.40;94.30;;;;;;5098948;28;20434;-49
2022/10/01 00:26:19;;;;;;;5.23;4.73;;;10.40;94.40;;;;;;5098283;28;20486;-48
2022/10/01 00:28:48;;;;;;;5.77;5.27;;;10.40;94.50;;;;;;5097223;28;20453;-46
2022/10/01 00:31:14;;;;;;;5.30;4.80;;;10.40;94.60;;;;;;5098140;28;20495;-46
2022/10/01 00:33:42;;;;;;;5.50;5.00;;;10.40;94.80;;;;;;5097175;28;20486;-46
2022/10/01 00:36:09;;;;;;;4.73;4.33;;;10.40;94.90;;;;;;5095033;28;20729;-45
2022/10/01 00:38:35;;;;;;;5.20;4.80;;;10.40;95.10;;;;;;5093557;28;20431;-46
2022/10/01 00:41:02;;;;;;;5.53;5.03;;;10.40;95.30;;;;;;5093198;28;20427;-46
2022/10/01 00:43:32;;;;;;;5.50;4.87;;;10.40;95.40;;;;;;5092896;28;20835;-46
2022/10/01 00:46:04;;;;;;;5.20;4.70;;;10.40;95.50;;;;;;5092532;28;20531;-46
2022/10/01 00:48:32;;;;;;;5.70;4.83;;;10.40;95.50;;;;;;5092780;28;20734;-47
2022/10/01 00:50:58;;;;;;;4.70;4.30;;;10.40;95.60;;;;;;5094163;28;20423;-45
2022/10/01 00:53:24;;;;;;;5.80;4.63;;;10.40;95.60;;;;;;5096156;28;20663;-47
2022/10/01 00:55:55;;;;;;;4.63;4.10;;;10.40;95.60;;;;;;5101418;28;20726;-46
2022/10/01 00:58:23;;;;;;;5.90;5.30;;;10.40;95.60;;;;;;5097035;28;20444;-46
2022/10/01 01:00:49;;;;;;;6.77;5.00;;;10.40;95.60;;;;;;5098077;28;20431;-45
2022/10/01 01:03:16;;;;;;;5.40;5.00;;;10.50;95.80;;;;;;5095944;28;20453;-46
2022/10/01 01:05:41;;;;;;;5.23;4.80;;;10.40;95.80;;;;;;5097161;28;20468;-45
2022/10/01 01:08:08;;;;;;;5.67;5.17;;;10.50;96.00;;;;;;5097735;28;20449;-45
2022/10/01 01:10:51;;;;;;;5.03;4.63;;;10.40;96.00;;;;;;5095808;28;20246;-47
2022/10/01 01:13:38;;;;;;;4.70;4.30;;;10.40;96.00;;;;;;5076527;28;20426;-46
2022/10/01 01:16:10;;;;;;;5.50;5.00;;;10.40;96.00;;;;;;5075974;28;20454;-46
2022/10/01 01:19:01;;;;;;;5.60;5.07;;;10.40;96.00;;;;;;5077505;28;20423;-44
2022/10/01 01:21:42;;;;;;;6.63;5.93;;;10.40;96.10;;;;;;5076089;28;20534;-44
2022/10/01 01:24:39;;;;;;;5.30;4.90;;;10.40;96.10;;;;;;5094755;28;20918;-45
2022/10/01 01:27:30;;;;;;;5.77;5.27;;;10.40;96.10;;;;;;5096401;28;20462;-45
2022/10/01 01:30:04;;;;;;;5.23;4.60;;;10.40;96.10;;;;;;5097730;28;20434;-46
2022/10/01 01:32:49;;;;;;;5.40;4.90;;;10.30;96.10;;;;;;5097149;28;20527;-47
2022/10/01 01:35:22;;;;;;;4.73;4.33;;;10.30;96.00;;;;;;5096649;28;20433;-47
2022/10/01 01:37:52;;;;;;;5.70;4.90;;;10.30;96.00;;;;;;5096898;28;20415;-48
2022/10/01 01:40:18;;;;;;;4.73;4.23;;;10.30;96.00;;;;;;5096691;28;20427;-48
2022/10/01 01:42:45;;;;;;;5.53;4.67;;;10.30;95.90;;;;;;5097531;28;20437;-48
2022/10/01 01:45:14;;;;;;;6.80;5.60;;;10.30;96.00;;;;;;5096026;28;20414;-45
2022/10/01 01:47:41;;;;;;;5.43;4.93;;;10.30;96.00;;;;;;5096008;28;20525;-45
2022/10/01 01:50:07;;;;;;;6.20;5.60;;;10.30;96.00;;;;;;5092963;28;20883;-47
2022/10/01 01:52:33;;;;;;;5.87;5.20;;;10.30;96.00;;;;;;5093808;28;20481;-46
2022/10/01 01:55:01;;;;;;;5.53;5.03;;;10.20;96.20;;;;;;5093507;28;20413;-46
2022/10/01 01:57:26;;;;;;;5.40;4.90;;;10.30;95.90;;;;;;5093117;28;20418;-47
2022/10/01 01:59:53;;;;;;;5.00;4.60;;;10.30;95.90;;;;;;5097400;28;20426;-50
2022/10/01 02:02:25;;;;;;;5.13;4.70;;;10.30;95.90;;;;;;5098482;28;20438;-47
2022/10/01 02:04:55;;;;;;;4.97;4.47;;;10.20;95.80;;;;;;5097931;28;20407;-47
2022/10/01 02:07:27;;;;;;;4.77;4.37;;;10.20;95.80;;;;;;5099214;28;20434;-45
2022/10/01 02:10:14;;;;;;;5.10;4.60;;;10.20;95.80;;;;;;5098113;28;20662;-47
2022/10/01 02:12:45;;;;;;;6.10;5.50;;;10.20;95.80;;;;;;5087629;28;20531;-47
2022/10/01 02:15:38;;;;;;;5.27;4.87;;;10.20;95.70;;;;;;5098491;28;20720;-46
2022/10/01 02:18:17;;;;;;;4.67;4.27;;;10.20;95.70;;;;;;5097801;28;20435;-47
2022/10/01 02:20:51;;;;;;;4.97;4.57;;;10.20;95.80;;;;;;5097219;28;20529;-46
2022/10/01 02:23:24;;;;;;;4.90;4.50;;;10.20;95.80;;;;;;5097524;28;20434;-47
2022/10/01 02:25:55;;;;;;;5.00;4.60;;;10.20;95.90;;;;;;5098670;28;20485;-46
2022/10/01 02:28:22;;;;;;;5.33;4.50;;;10.20;96.00;;;;;;5099990;28;20445;-46
2022/10/01 02:30:49;;;;;;;4.70;4.30;;;10.10;96.00;;;;;;5100384;28;20752;-47
2022/10/01 02:33:20;;;;;;;5.30;4.80;;;10.20;96.00;;;;;;5098862;28;20431;-45
2022/10/01 02:35:46;;;;;;;5.63;4.77;;;10.20;96.10;;;;;;5099962;28;20530;-49
2022/10/01 02:38:14;;;;;;;5.03;4.53;;;10.10;96.00;;;;;;5100846;28;20426;-47
2022/10/01 02:40:41;;;;;;;5.07;4.57;;;10.10;96.00;;;;;;5099280;28;20438;-45
2022/10/01 02:43:11;;;;;;;5.00;4.33;;;10.10;96.00;;;;;;5098339;28;20427;-45
2022/10/01 02:45:39;;;;;;;5.13;4.70;;;10.10;96.00;;;;;;5098616;28;20469;-46
2022/10/01 02:48:09;;;;;;;5.17;4.70;;;10.10;96.20;;;;;;5099348;28;20858;-45
2022/10/01 02:50:50;;;;;;;4.63;4.30;;;10.10;95.90;;;;;;5097642;28;20442;-48
2022/10/01 02:53:38;;;;;;;5.60;4.77;;;10.10;95.90;;;;;;5097629;28;20853;-46
2022/10/01 02:56:07;;;;;;;4.60;4.00;;;10.20;95.90;;;;;;5097542;28;20701;-45
2022/10/01 02:58:32;;;;;;;5.90;3.57;;;10.10;95.90;;;;;;5065258;28;20462;-47
2022/10/01 03:00:58;;;;;;;4.30;3.90;;;10.10;95.90;;;;;;5083055;28;21123;-46
2022/10/01 03:03:25;;;;;;;5.73;4.10;;;10.10;95.80;;;;;;5098686;28;20201;-45
2022/10/01 03:05:50;;;;;;;3.70;3.40;;;10.10;95.80;;;;;;5098717;28;20204;-48
2022/10/01 03:08:16;;;;;;;4.40;4.00;;;10.10;95.80;;;;;;5097777;28;20419;-45
2022/10/01 03:10:42;;;;;;;3.93;3.63;;;10.10;95.80;;;;;;5095582;28;20458;-47
2022/10/01 03:13:07;;;;;;;4.07;3.67;;;10.10;95.90;;;;;;5097119;28;20180;-45
2022/10/01 03:15:33;;;;;;;6.80;4.00;;;10.10;95.90;;;;;;5097878;28;20208;-46
2022/10/01 03:17:58;;;;;;;3.73;3.43;;;10.10;95.90;;;;;;5097785;28;20563;-47
2022/10/01 03:20:25;;;;;;;4.20;3.40;;;10.10;95.90;;;;;;5099038;28;20183;-46
2022/10/01 03:22:51;;;;;;;4.27;3.40;;;10.10;96.20;;;;;;5099347;28;20177;-47
2022/10/01 03:25:16;;;;;;;3.93;3.60;;;10.10;95.90;;;;;;5097594;28;20614;-48
2022/10/01 03:27:42;;;;;;;4.90;4.10;;;10.10;95.90;;;;;;5097239;28;20177;-47
2022/10/01 03:30:08;;;;;;;3.47;3.17;;;10.10;95.90;;;;;;5098449;28;20180;-47
2022/10/01 03:32:34;;;;;;;3.30;3.00;;;10.10;95.90;;;;;;5097009;28;20183;-45
2022/10/01 03:35:00;;;;;;;4.80;4.33;;;10.00;95.90;;;;;;5097197;28;20993;-45
2022/10/01 03:37:26;;;;;;;4.13;3.73;;;10.10;96.00;;;;;;5097407;28;20523;-45
2022/10/01 03:39:51;;;;;;;3.63;3.33;;;10.00;95.90;;;;;;5096801;28;20422;-46
2022/10/01 03:42:17;;;;;;;3.73;3.40;;;10.00;95.90;;;;;;5096516;28;20448;-46
2022/10/01 03:44:43;;;;;;;3.60;3.30;;;10.00;96.00;;;;;;5095766;28;20245;-45
2022/10/01 03:47:09;;;;;;;3.70;3.33;;;10.00;96.00;;;;;;5094965;28;20209;-46
2022/10/01 03:49:35;;;;;;;4.80;3.80;;;10.00;96.00;;;;;;5095027;28;20183;-47
2022/10/01 03:52:02;;;;;;;3.90;3.50;;;10.00;95.90;;;;;;5092777;28;20414;-46
2022/10/01 03:54:29;;;;;;;4.50;3.63;;;10.00;95.90;;;;;;5095069;28;20902;-46
2022/10/01 03:56:54;;;;;;;3.83;3.53;;;10.00;95.90;;;;;;5096784;28;20499;-47
2022/10/01 03:59:20;;;;;;;3.87;3.57;;;10.00;95.90;;;;;;5097626;28;20438;-48
2022/10/01 04:01:46;;;;;;;3.33;3.03;;;10.00;95.80;;;;;;5096764;28;20274;-45
2022/10/01 04:04:11;;;;;;;3.20;2.90;;;10.00;95.80;;;;;;5096937;28;20212;-45
2022/10/01 04:06:37;;;;;;;2.97;2.77;;;10.00;95.80;;;;;;5096330;28;20211;-46
2022/10/01 04:09:03;;;;;;;3.73;3.10;;;10.00;95.80;;;;;;5094244;28;20455;-46
2022/10/01 04:11:29;;;;;;;3.47;3.10;;;10.00;95.70;;;;;;5094599;28;20266;-47
2022/10/01 04:13:56;;;;;;;3.20;2.90;;;10.00;96.00;;;;;;5096222;28;20582;-50
2022/10/01 04:16:28;;;;;;;3.77;3.17;;;10.00;96.00;;;;;;5095856;28;20446;-46
2022/10/01 04:18:54;;;;;;;3.03;2.77;;;10.00;95.80;;;;;;5096679;28;20796;-47
2022/10/01 04:21:20;;;;;;;3.50;3.20;;;10.00;95.70;;;;;;5097565;28;20518;-47
2022/10/01 04:23:46;;;;;;;4.40;3.80;;;10.00;95.70;;;;;;5098111;28;20185;-45
2022/10/01 04:26:12;;;;;;;4.73;3.13;;;10.00;95.70;;;;;;5097799;28;20204;-45
2022/10/01 04:28:37;;;;;;;2.90;2.60;;;10.00;95.70;;;;;;5096841;28;20583;-46
2022/10/01 04:33:47;;;;;;;3.17;2.50;;;10.00;95.70;;;;;;5095234;28;20476;-48
2022/10/01 04:36:13;;;;;;;3.13;2.83;;;10.00;95.70;;;;;;5094934;28;20423;-48
2022/10/01 04:38:39;;;;;;;2.60;2.40;;;10.00;95.60;;;;;;5095818;28;20180;-46
2022/10/01 04:41:04;;;;;;;2.90;2.60;;;10.00;95.60;;;;;;5096288;28;20415;-45
2022/10/01 04:43:30;;;;;;;3.33;3.03;;;10.10;95.50;;;;;;5096135;28;20181;-47
2022/10/01 04:45:55;;;;;;;5.27;2.87;;;10.10;95.50;;;;;;5096848;28;20204;-48
2022/10/01 04:48:21;;;;;;;4.10;2.80;;;10.10;95.50;;;;;;5096786;28;20189;-49
2022/10/01 04:50:46;;;;;;;2.93;2.63;;;10.10;95.60;;;;;;5095167;28;20173;-45
2022/10/01 04:53:12;;;;;;;3.13;2.83;;;10.10;95.60;;;;;;5094764;28;20188;-45
2022/10/01 04:55:38;;;;;;;3.00;2.70;;;10.10;95.60;;;;;;5094985;28;20226;-45
2022/10/01 04:58:03;;;;;;;3.80;2.77;;;10.10;95.70;;;;;;5095463;28;20452;-46
2022/10/01 05:00:29;;;;;;;2.70;2.50;;;10.10;95.70;;;;;;5096434;28;20177;-46
2022/10/01 05:02:54;;;;;;;3.30;2.87;;;10.00;95.70;;;;;;5096358;28;20207;-45
2022/10/01 05:05:22;;;;;;;2.30;2.10;;;10.10;95.80;;;;;;5095172;28;20531;-45
2022/10/01 05:07:48;;;;;;;3.40;2.73;;;10.00;95.70;;;;;;5095099;28;20204;-45
2022/10/01 05:10:17;;;;;;;2.57;2.37;;;10.10;95.70;;;;;;5095195;28;20428;-45
2022/10/01 05:12:43;;;;;;;2.47;2.27;;;10.00;95.70;;;;;;5094471;28;20700;-45
2022/10/01 05:15:09;;;;;;;2.40;2.20;;;10.00;95.70;;;;;;5094641;28;20411;-46
2022/10/01 05:17:34;;;;;;;2.70;2.50;;;9.90;96.40;;;;;;5096011;28;20480;-45
2022/10/01 05:20:01;;;;;;;2.77;2.57;;;9.90;96.60;;;;;;5094823;28;20701;-43
2022/10/01 05:22:27;;;;;;;2.37;2.17;;;9.90;96.70;;;;;;5095334;28;20268;-45
2022/10/01 05:24:53;;;;;;;2.90;2.50;;;9.90;96.80;;;;;;5095488;28;20450;-43
2022/10/01 05:27:18;;;;;;;3.73;2.17;;;9.90;96.90;;;;;;5096067;28;20440;-46
2022/10/01 05:29:45;;;;;;;2.73;2.33;;;9.80;96.90;;;;;;5094312;28;20177;-43
2022/10/01 05:32:11;;;;;;;4.90;3.23;;;9.80;96.90;;;;;;5092125;28;20194;-47
2022/10/01 05:34:37;;;;;;;2.67;2.23;;;9.80;96.90;;;;;;5096714;28;20426;-46
2022/10/01 05:37:03;;;;;;;2.77;2.57;;;9.80;96.90;;;;;;5096341;28;20524;-45
2022/10/01 05:39:30;;;;;;;2.87;2.63;;;9.80;96.90;;;;;;5095113;28;20724;-45
2022/10/01 05:41:58;;;;;;;2.20;2.00;;;9.80;96.90;;;;;;5095753;28;20658;-43
2022/10/01 05:44:24;;;;;;;2.47;2.27;;;9.80;96.90;;;;;;5097008;28;20681;-48
2022/10/01 05:46:51;;;;;;;2.60;2.00;;;9.80;96.90;;;;;;5098401;28;20683;-46
2022/10/01 05:49:16;;;;;;;2.60;2.40;;;9.80;96.90;;;;;;5098765;28;20422;-44
2022/10/01 05:51:43;;;;;;;3.50;2.60;;;9.90;97.00;;;;;;5099355;28;20455;-44
2022/10/01 05:54:09;;;;;;;2.77;2.50;;;9.90;96.90;;;;;;5099340;28;20187;-44
2022/10/01 05:56:35;;;;;;;2.50;2.30;;;9.90;96.90;;;;;;5081518;28;20782;-47
2022/10/01 05:59:01;;;;;;;2.20;2.00;;;9.90;96.90;;;;;;5097939;28;20892;-44
2022/10/01 06:01:27;;;;;;;2.70;2.30;;;9.90;96.80;;;;;;5096824;28;20426;-46
2022/10/01 06:03:53;;;;;;;3.20;2.90;;;9.90;96.80;;;;;;5097490;28;20172;-46
2022/10/01 06:06:23;;;;;;;2.20;1.90;;;9.90;96.80;;;;;;5097179;28;20502;-44
2022/10/01 06:08:48;;;;;;;2.70;2.50;;;10.00;96.20;;;;;;5097363;28;20829;-43
2022/10/01 06:11:15;;;;;;;2.50;2.30;;;10.00;96.20;;;;;;5096924;28;20422;-49
2022/10/01 06:13:43;;;;;;;2.27;2.07;;;10.10;96.10;;;;;;5096204;28;20200;-44
2022/10/01 06:16:13;;;;;;;2.30;2.10;;;10.10;96.10;;;;;;5094821;28;20458;-45
2022/10/01 06:18:40;;;;;;;2.73;2.13;;;10.10;96.00;;;;;;5095160;28;20431;-46
2022/10/01 06:21:07;;;;;;;3.40;2.27;;;10.20;96.00;;;;;;5097385;28;20473;-45
2022/10/01 06:23:32;;;;;;;2.70;2.50;;;10.20;95.90;;;;;;5097424;28;20520;-45
2022/10/01 06:25:59;;;;;;;3.10;2.40;;;10.20;95.90;;;;;;5097276;28;20818;-46
2022/10/01 06:28:25;;;;;;;4.40;2.10;;;10.20;95.90;;;;;;5096445;28;20183;-45
2022/10/01 06:30:52;;;;;;;3.03;2.40;;;10.20;95.90;;;;;;5098677;28;20539;-45
2022/10/01 06:33:18;;;;;;;2.83;2.50;;;10.20;95.70;;;;;;5098174;28;20180;-46
2022/10/01 06:35:46;;;;;;;2.37;1.87;;;10.20;95.70;;;;;;5096972;28;20467;-44
2022/10/01 06:38:12;;;;;;;2.50;2.00;;;10.30;95.50;;;;;;5098140;28;20419;-44
2022/10/01 06:40:39;;;;;;;2.60;2.40;;;10.30;95.50;;;;;;5095308;28;20441;-42
2022/10/01 06:43:06;;;;;;;2.70;2.27;;;10.30;95.40;;;;;;5095677;28;20437;-43
2022/10/01 06:45:36;;;;;;;3.20;2.00;;;10.30;95.30;;;;;;5094811;28;21702;-44
2022/10/01 06:48:02;;;;;;;2.93;2.07;;;10.40;95.20;;;;;;5094564;28;20415;-44
2022/10/01 06:50:29;;;;;;;3.80;2.37;;;10.40;95.00;;;;;;5094259;28;20450;-46
2022/10/01 06:52:56;;;;;;;2.63;2.20;;;10.40;95.30;;;;;;5094090;28;20421;-45
2022/10/01 06:55:25;;;;;;;2.60;1.93;;;10.50;95.00;;;;;;5096423;28;20467;-48
2022/10/01 06:58:05;;;;;;;2.37;2.17;;;10.50;94.90;;;;;;5094521;28;20429;-47
2022/10/01 07:00:33;;;;;;;2.83;2.43;;;10.60;95.10;;;;;;5095897;28;20684;-47
2022/10/01 07:02:59;;;;;;;2.10;1.90;;;10.60;94.60;;;;;;5095068;28;20422;-46
2022/10/01 07:05:26;;;;;;;2.57;2.37;;;10.60;94.50;;;;;;5093976;28;20500;-47
2022/10/01 07:07:52;;;;;;;3.73;2.40;;;10.70;94.50;;;;;;5092188;28;20413;-45
2022/10/01 07:10:19;;;;;;;2.80;2.20;;;10.70;94.40;;;;;;5094855;28;20429;-44
2022/10/01 07:12:49;;;;;;;2.10;1.90;;;10.80;94.30;;;;;;5096060;28;20517;-44
2022/10/01 07:15:16;;;;;;;2.10;1.60;;;10.80;94.20;;;;;;5095785;28;20426;-45
2022/10/01 07:17:50;;;;;;;2.70;1.47;;;10.80;94.40;;;;;;5096337;28;20423;-45
2022/10/01 07:20:17;;;;;;;3.77;2.67;;;10.80;94.00;;;;;;5097668;28;20418;-46
2022/10/01 07:22:43;;;;;;;2.20;2.00;;;10.90;94.10;;;;;;5097795;28;20422;-46
2022/10/01 07:25:09;;;;;;;2.40;1.83;;;10.90;94.10;;;;;;5097491;28;20411;-46
2022/10/01 07:27:35;;;;;;;3.30;1.97;;;10.90;94.10;;;;;;5096161;28;20444;-50
2022/10/01 07:30:02;;;;;;;2.70;1.97;;;10.90;94.20;;;;;;5097373;28;20165;-46
2022/10/01 07:32:30;;;;;;;2.13;1.80;;;10.90;94.30;;;;;;5097246;28;20422;-46
2022/10/01 07:34:56;;;;;;;2.50;2.20;;;11.00;94.30;;;;;;5095809;28;20510;-43
2022/10/01 07:37:22;;;;;;;3.60;2.27;;;10.90;94.30;;;;;;5091554;28;20565;-44
2022/10/01 07:39:47;;;;;;;2.10;1.90;;;11.00;94.50;;;;;;5093175;28;20409;-47
2022/10/01 07:42:13;;;;;;;3.10;2.40;;;11.00;94.50;;;;;;5092101;28;20231;-44
2022/10/01 07:44:38;;;;;;;2.40;1.90;;;11.00;94.50;;;;;;5094571;28;20587;-43
2022/10/01 07:47:04;;;;;;;2.70;2.10;;;11.00;94.50;;;;;;5093500;28;20204;-49
2022/10/01 07:49:29;;;;;;;2.80;2.10;;;11.10;94.60;;;;;;5096012;28;20184;-45
2022/10/01 07:51:57;;;;;;;2.07;1.87;;;11.10;94.70;;;;;;5095933;28;20517;-46
2022/10/01 07:54:23;;;;;;;2.47;1.90;;;11.10;94.90;;;;;;5095576;28;20490;-47
2022/10/01 07:56:51;;;;;;;2.83;1.97;;;11.00;95.00;;;;;;5096048;28;20472;-45
2022/10/01 07:59:17;;;;;;;3.67;1.90;;;11.10;95.20;;;;;;5096637;28;20782;-44
2022/10/01 08:01:46;;;;;;;2.10;1.90;;;11.00;95.40;;;;;;5097715;28;20702;-45
2022/10/01 08:06:56;;;;;;;2.13;1.93;;;11.10;95.80;;;;;;5094762;28;20894;-47
2022/10/01 08:09:22;;;;;;;4.43;1.73;;;11.10;95.90;;;;;;5095473;28;20431;-43
2022/10/01 08:11:48;;;;;;;3.20;2.07;;;11.10;96.00;;;;;;5095739;28;20474;-43
2022/10/01 08:14:14;;;;;;;3.27;2.20;;;11.10;96.10;;;;;;5095964;28;20419;-46
2022/10/01 08:16:40;;;;;;;3.07;1.70;;;11.10;96.20;;;;;;5096452;28;20260;-43
2022/10/01 08:19:07;;;;;;;2.70;2.30;;;11.20;96.30;;;;;;5096665;28;20476;-45
2022/10/01 08:21:34;;;;;;;2.47;1.90;;;11.20;96.40;;;;;;5093516;28;20465;-45
2022/10/01 08:24:01;;;;;;;2.43;2.20;;;11.20;96.50;;;;;;5093274;28;20403;-45
2022/10/01 08:26:27;;;;;;;3.17;1.97;;;11.30;96.60;;;;;;5092487;28;20433;-43
2022/10/01 08:28:52;;;;;;;3.70;2.30;;;11.30;97.00;;;;;;5094302;28;20426;-44
2022/10/01 08:31:18;;;;;;;2.50;2.10;;;11.30;96.80;;;;;;5094327;28;20450;-48
2022/10/01 08:33:44;;;;;;;2.40;1.87;;;11.30;97.00;;;;;;5093953;28;20190;-43
2022/10/01 08:36:10;;;;;;;2.20;1.97;;;11.30;97.00;;;;;;5093378;28;20213;-43
2022/10/01 08:38:36;;;;;;;2.50;2.07;;;11.40;97.30;;;;;;5093454;28;20210;-44
2022/10/01 08:41:39;;;;;;;2.83;2.63;;;11.50;97.30;;;;;;5093661;28;20242;-44
2022/10/01 08:44:06;;;;;;;2.20;2.00;;;11.60;97.40;;;;;;5093190;28;20475;-44
2022/10/01 08:46:34;;;;;;;2.13;1.93;;;11.70;97.30;;;;;;5092135;28;20441;-44
2022/10/01 08:49:03;;;;;;;3.60;2.23;;;11.80;97.40;;;;;;5090747;28;20429;-48
2022/10/01 08:51:31;;;;;;;2.87;2.00;;;11.90;97.40;;;;;;5092935;28;20412;-46
2022/10/01 08:54:17;;;;;;;2.20;1.80;;;12.00;97.30;;;;;;5094920;28;20518;-45
2022/10/01 08:56:45;;;;;;;2.73;2.20;;;12.10;97.20;;;;;;5093993;28;20950;-46
2022/10/01 08:59:43;;;;;;;2.23;2.03;;;12.20;97.10;;;;;;5092870;28;20466;-46
2022/10/01 09:02:22;;;;;;;4.70;2.47;;;12.20;97.10;;;;;;5091831;28;20899;-46
2022/10/01 09:04:50;;;;;;;2.40;1.50;;;12.40;97.20;;;;;;5094872;28;20405;-47
2022/10/01 09:07:54;;;;;;;2.77;2.10;;;12.50;97.10;;;;;;5092582;28;20415;-47
2022/10/01 09:10:40;;;;;;;2.00;1.80;;;12.70;96.70;;;;;;5091282;28;20426;-45
2022/10/01 09:13:43;;;;;;;4.07;2.10;;;12.80;96.20;;;;;;5093649;28;20907;-43
2022/10/01 09:16:28;;;;;;;5.30;2.20;;;13.00;96.30;;;;;;5092964;28;20472;-46
2022/10/01 09:19:12;;;;;;;2.10;1.67;;;13.10;96.20;;;;;;5093505;28;20420;-44
2022/10/01 09:21:56;;;;;;;1.63;1.53;;;13.20;96.20;;;;;;5093308;28;20423;-44
2022/10/01 09:24:44;;;;;;;2.03;1.67;;;13.30;96.00;;;;;;5091160;28;20437;-46
2022/10/01 09:27:15;;;;;;;2.73;1.50;;;13.40;96.10;;;;;;5091802;28;20417;-48
2022/10/01 09:29:53;;;;;;;2.40;1.47;;;13.40;96.00;;;;;;5094701;28;20852;-47
2022/10/01 09:32:22;;;;;;;1.80;1.43;;;13.50;96.00;;;;;;5089904;28;20518;-45
2022/10/01 09:34:48;;;;;;;1.87;1.60;;;13.50;96.00;;;;;;5090571;28;20427;-44
2022/10/01 09:37:22;;;;;;;2.50;1.70;;;13.50;95.90;;;;;;5091468;28;20482;-43
2022/10/01 09:40:20;;;;;;;2.10;1.10;;;13.50;95.90;;;;;;5090323;28;20399;-45
2022/10/01 09:42:46;;;;;;;2.27;1.67;;;13.50;95.90;;;;;;5089946;28;20423;-44
2022/10/01 09:45:17;;;;;;;4.13;2.70;;;13.60;96.00;;;;;;5091947;28;20414;-45
2022/10/01 09:47:47;;;;;;;1.90;1.67;;;13.70;96.00;;;;;;5097547;28;20835;-48
2022/10/01 09:50:16;;;;;;;1.40;1.30;;;13.80;95.60;;;;;;5093050;28;20401;-47
2022/10/01 09:52:45;;;;;;;1.87;1.47;;;13.90;95.60;;;;;;5091096;28;20438;-48
2022/10/01 09:55:33;;;;;;;1.73;1.40;;;14.00;95.50;;;;;;5093339;28;20470;-44
2022/10/01 09:58:16;;;;;;;1.67;1.10;;;13.90;95.40;;;;;;5092832;28;20729;-45
2022/10/01 10:00:44;;;;;;;2.43;1.23;;;13.90;95.50;;;;;;5090606;28;20415;-46
2022/10/01 10:03:21;;;;;;;1.73;1.10;;;13.80;95.60;;;;;;5090790;28;20433;-43
2022/10/01 10:05:48;;;;;;;1.50;1.00;;;13.70;96.20;;;;;;5091725;28;20410;-47
2022/10/01 10:08:37;;;;;;;1.43;0.97;;;13.50;96.20;;;;;;5093139;28;20718;-44
2022/10/01 10:11:09;;;;;;;2.77;1.20;;;13.50;96.60;;;;;;5091461;28;20415;-46
2022/10/01 10:13:55;;;;;;;3.23;1.33;;;13.40;96.90;;;;;;5089054;28;20438;-47
2022/10/01 10:16:33;;;;;;;1.20;1.00;;;13.50;97.10;;;;;;5073880;28;20879;-46
2022/10/01 10:19:03;;;;;;;2.30;1.37;;;13.40;97.10;;;;;;5088481;28;20493;-43
2022/10/01 10:21:30;;;;;;;1.70;1.10;;;13.50;97.20;;;;;;5092047;28;20442;-44
2022/10/01 10:24:01;;;;;;;1.67;1.00;;;13.40;97.20;;;;;;5092691;28;20429;-45
2022/10/01 10:26:33;;;;;;;1.83;0.93;;;13.30;97.30;;;;;;5090578;28;20733;-46
2022/10/01 10:29:03;;;;;;;2.20;1.40;;;13.30;97.50;;;;;;5092597;28;20443;-45
2022/10/01 10:31:37;;;;;;;1.20;0.90;;;13.30;97.70;;;;;;5095389;28;20419;-46
2022/10/01 10:34:15;;;;;;;1.33;0.90;;;13.20;97.80;;;;;;5095377;28;20427;-46
2022/10/01 10:36:42;;;;;;;1.07;0.83;;;13.20;98.00;;;;;;5097374;28;20548;-46
2022/10/01 10:39:31;;;;;;;1.63;0.83;;;13.30;98.20;;;;;;5095038;28;20721;-46
2022/10/01 10:41:58;;;;;;;1.60;0.97;;;13.30;98.30;;;;;;5097182;28;20465;-45
2022/10/01 10:44:26;;;;;;;2.07;1.10;;;13.30;98.40;;;;;;5098312;28;20436;-44
2022/10/01 10:46:53;;;;;;;4.60;1.10;;;13.30;98.30;;;;;;5098309;28;20435;-46
2022/10/01 10:49:30;;;;;;;2.00;1.37;;;13.40;99.40;;;;;;5097213;28;20837;-42
2022/10/01 10:51:58;;;;;;;1.57;1.00;;;13.70;99.90;;;;;;5076972;28;20437;-44
2022/10/01 10:54:34;;;;;;;1.20;0.73;;;13.90;99.80;;;;;;5094130;28;20411;-43
2022/10/01 10:57:28;;;;;;;4.10;1.30;;;14.30;99.20;;;;;;5096030;28;20482;-46
2022/10/01 11:00:22;;;;;;;1.50;0.67;;;14.80;98.60;;;;;;5096854;28;20485;-44
2022/10/01 11:02:55;;;;;;;1.50;0.83;;;15.30;97.40;;;;;;5094809;28;20419;-45
2022/10/01 11:05:30;;;;;;;2.23;0.80;;;15.80;96.00;;;;;;5096594;28;20424;-43
2022/10/01 11:08:02;;;;;;;0.93;0.60;;;16.10;95.20;;;;;;5094321;28;20420;-47
2022/10/01 11:10:48;;;;;;;1.13;0.80;;;16.20;94.50;;;;;;5094654;28;20710;-43
2022/10/01 11:13:34;;;;;;;1.60;0.97;;;16.20;94.20;;;;;;5095480;28;20490;-44
2022/10/01 11:15:59;;;;;;;1.80;0.80;;;16.20;93.40;;;;;;5094461;28;20813;-43
2022/10/01 11:19:02;;;;;;;1.60;0.70;;;16.00;93.20;;;;;;5095975;28;20514;-42
2022/10/01 11:21:32;;;;;;;1.57;0.90;;;15.80;93.30;;;;;;5085573;28;20194;-43
2022/10/01 11:24:14;;;;;;;2.40;1.13;;;15.60;93.30;;;;;;5094210;28;20453;-43
2022/10/01 11:26:52;;;;;;;1.20;0.80;;;15.30;93.80;;;;;;5095031;28;20483;-44
2022/10/01 11:29:36;;;;;;;1.40;0.87;;;15.10;94.20;;;;;;5094861;28;20422;-42
2022/10/01 11:32:04;;;;;;;1.50;0.83;;;14.90;94.50;;;;;;5094245;28;20411;-44
2022/10/01 11:35:03;;;;;;;1.90;0.90;;;14.80;94.70;;;;;;5094189;28;20424;-43
2022/10/01 11:37:59;;;;;;;1.00;0.60;;;14.60;94.90;;;;;;5088886;28;20473;-43
2022/10/01 11:41:06;;;;;;;1.10;0.70;;;14.40;95.30;;;;;;5094233;28;20405;-42
2022/10/01 11:43:43;;;;;;;0.90;0.60;;;14.20;95.70;;;;;;5094402;28;20735;-43
2022/10/01 11:46:15;;;;;;;1.40;0.80;;;14.00;96.20;;;;;;5094881;28;20592;-47
2022/10/01 11:48:45;;;;;;;1.20;0.70;;;13.90;96.60;;;;;;5095966;28;20424;-42
2022/10/01 11:51:18;;;;;;;1.40;0.80;;;13.80;96.90;;;;;;5095545;28;20514;-47
2022/10/01 11:53:47;;;;;;;1.20;0.77;;;13.70;97.10;;;;;;5090020;28;20215;-44
2022/10/01 11:59:32;;;;;;;1.40;0.90;;;13.60;97.30;;;;;;5090328;28;20411;-44
2022/10/01 12:02:15;;;;;;;1.70;1.00;;;13.60;97.60;;;;;;5092892;28;20483;-45
2022/10/01 12:04:48;;;;;;;2.30;1.10;;;13.60;97.60;;;;;;5095103;28;20412;-45
2022/10/01 12:07:42;;;;;;;2.17;1.40;;;13.80;97.70;;;;;;5096307;28;20513;-43
2022/10/01 12:10:32;;;;;;;1.63;0.70;;;13.90;97.50;;;;;;5095246;28;20511;-43
2022/10/01 12:13:09;;;;;;;0.90;0.60;;;14.20;97.20;;;;;;5093266;28;20688;-41
2022/10/01 12:15:35;;;;;;;1.33;0.90;;;14.50;96.80;;;;;;5093691;28;20717;-41
2022/10/01 12:18:21;;;;;;;1.30;0.80;;;14.90;96.20;;;;;;5094982;28;20423;-41
2022/10/01 12:20:49;;;;;;;1.37;0.87;;;15.00;95.70;;;;;;5094951;28;20180;-42
2022/10/01 12:23:29;;;;;;;1.43;0.77;;;15.10;95.20;;;;;;5093454;28;20574;-43
2022/10/01 12:26:15;;;;;;;1.93;0.80;;;15.10;95.10;;;;;;5094844;28;20415;-42
2022/10/01 12:28:54;;;;;;;1.47;0.90;;;15.00;95.00;;;;;;5093213;28;20496;-44
2022/10/01 12:31:42;;;;;;;1.70;0.80;;;14.90;95.10;;;;;;5075486;28;20704;-43
2022/10/01 12:34:25;;;;;;;1.40;1.10;;;14.80;95.30;;;;;;5090403;28;20428;-44
2022/10/01 12:37:12;;;;;;;1.30;0.93;;;14.80;95.50;;;;;;5092405;28;20471;-43
2022/10/01 12:40:03;;;;;;;1.53;0.80;;;14.80;95.60;;;;;;5096200;28;20417;-43
2022/10/01 12:42:47;;;;;;;1.47;1.00;;;14.80;95.70;;;;;;5095913;28;20424;-45
2022/10/01 12:45:12;;;;;;;1.83;1.00;;;14.80;95.80;;;;;;5092860;28;20434;-44
2022/10/01 12:47:58;;;;;;;1.13;0.70;;;14.80;95.90;;;;;;5095506;28;20400;-44
2022/10/01 12:50:34;;;;;;;1.27;1.03;;;14.80;95.80;;;;;;5092954;28;20197;-43
2022/10/01 12:53:08;;;;;;;1.97;1.60;;;14.90;95.70;;;;;;5092545;28;20444;-44
2022/10/01 12:55:57;;;;;;;1.87;1.30;;;15.00;95.60;;;;;;5093821;28;20475;-42
2022/10/01 12:58:40;;;;;;;1.97;1.20;;;15.00;95.60;;;;;;5096029;28;20522;-44
2022/10/01 13:01:20;;;;;;;1.50;1.10;;;15.10;95.70;;;;;;5094630;28;20416;-43
2022/10/01 13:04:13;;;;;;;2.60;1.70;;;15.10;95.50;;;;;;5094440;28;20452;-42
2022/10/01 13:07:06;;;;;;;2.90;2.00;;;15.20;95.30;;;;;;5095425;28;20850;-42
2022/10/01 13:09:42;;;;;;;2.17;1.60;;;15.30;95.20;;;;;;5093619;28;20433;-44
2022/10/01 13:12:24;;;;;;;1.70;1.27;;;15.40;95.20;;;;;;5092551;28;20424;-44
2022/10/01 13:14:52;;;;;;;1.50;1.20;;;15.50;94.90;;;;;;5094198;28;20511;-43
2022/10/01 13:17:25;;;;;;;1.63;1.03;;;15.40;94.90;;;;;;5094391;28;20459;-41
2022/10/01 13:19:52;;;;;;;2.03;0.70;;;15.60;95.00;;;;;;5093176;28;20805;-45